sensor_id;sensor_type;location;lat;lon;timestamp;P1;durP1;ratioP1;P2;durP2;ratioP2
55069;SDS011;40967;52.070;8.596;2022-07-15T00:01:49;0.10;;;0.10;;
55069;SDS011;40967;52.070;8.596;2022-07-15T00:04:15;0.13;;;0.10;;
55069;SDS011;40967;52.070;8.596;2022-07-15T00:06:41;0.30;;;0.20;;
55069;SDS011;40967;52.070;8.596;2022-07-15T00:09:06;0.05;;;0.05;;
55069;SDS011;40967;52.070;8.596;2022-07-15T00:11:31;0.23;;;0.10;;
55069;SDS011;40967;52.070;8.596;2022-07-15T00:13:57;0.50;;;0.20;;
55069;SDS011;40967;52.070;8.596;2022-07-15T00:16:23;0.25;;;0.15;;
55069;SDS011;40967;52.070;8.596;2022-07-15T00:18:48;0.60;;;0.17;;
55069;SDS011;40967;52.070;8.596;2022-07-15T00:21:14;0.23;;;0.20;;
55069;SDS011;40967;52.070;8.596;2022-07-15T00:23:39;0.30;;;0.20;;
55069;SDS011;40967;52.070;8.596;2022-07-15T00:26:05;0.80;;;0.20;;
55069;SDS011;40967;52.070;8.596;2022-07-15T00:28:30;0.40;;;0.20;;
55069;SDS011;40967;52.070;8.596;2022-07-15T00:30:55;0.33;;;0.20;;
55069;SDS011;40967;52.070;8.596;2022-07-15T00:33:21;0.40;;;0.20;;
55069;SDS011;40967;52.070;8.596;2022-07-15T00:35:46;0.20;;;0.20;;
55069;SDS011;40967;52.070;8.596;2022-07-15T00:38:12;0.10;;;0.10;;
55069;SDS011;40967;52.070;8.596;2022-07-15T00:40:44;0.40;;;0.20;;
55069;SDS011;40967;52.070;8.596;2022-07-15T00:43:12;0.25;;;0.20;;
55069;SDS011;40967;52.070;8.596;2022-07-15T00:45:38;0.30;;;0.20;;
55069;SDS011;40967;52.070;8.596;2022-07-15T00:48:04;0.35;;;0.17;;
55069;SDS011;40967;52.070;8.596;2022-07-15T00:50:30;0.40;;;0.30;;
55069;SDS011;40967;52.070;8.596;2022-07-15T00:53:06;0.38;;;0.20;;
55069;SDS011;40967;52.070;8.596;2022-07-15T00:55:42;0.63;;;0.20;;
55069;SDS011;40967;52.070;8.596;2022-07-15T00:58:10;0.38;;;0.25;;
55069;SDS011;40967;52.070;8.596;2022-07-15T01:00:39;0.30;;;0.20;;
55069;SDS011;40967;52.070;8.596;2022-07-15T01:03:06;0.30;;;0.20;;
55069;SDS011;40967;52.070;8.596;2022-07-15T01:05:32;0.10;;;0.10;;
55069;SDS011;40967;52.070;8.596;2022-07-15T01:07:58;0.50;;;0.20;;
55069;SDS011;40967;52.070;8.596;2022-07-15T01:10:23;0.60;;;0.20;;
55069;SDS011;40967;52.070;8.596;2022-07-15T01:12:50;0.32;;;0.13;;
55069;SDS011;40967;52.070;8.596;2022-07-15T01:15:16;0.60;;;0.28;;
55069;SDS011;40967;52.070;8.596;2022-07-15T01:17:43;0.27;;;0.20;;
55069;SDS011;40967;52.070;8.596;2022-07-15T01:20:10;0.75;;;0.20;;
55069;SDS011;40967;52.070;8.596;2022-07-15T01:22:37;1.38;;;0.30;;
55069;SDS011;40967;52.070;8.596;2022-07-15T01:25:02;0.65;;;0.20;;
55069;SDS011;40967;52.070;8.596;2022-07-15T01:27:28;0.67;;;0.30;;
55069;SDS011;40967;52.070;8.596;2022-07-15T01:29:54;0.50;;;0.30;;
55069;SDS011;40967;52.070;8.596;2022-07-15T01:32:19;0.23;;;0.20;;
55069;SDS011;40967;52.070;8.596;2022-07-15T01:34:44;0.50;;;0.28;;
55069;SDS011;40967;52.070;8.596;2022-07-15T01:37:13;0.70;;;0.30;;
55069;SDS011;40967;52.070;8.596;2022-07-15T01:39:39;0.47;;;0.30;;
55069;SDS011;40967;52.070;8.596;2022-07-15T01:42:04;0.30;;;0.20;;
55069;SDS011;40967;52.070;8.596;2022-07-15T01:44:30;0.70;;;0.30;;
55069;SDS011;40967;52.070;8.596;2022-07-15T01:46:55;0.80;;;0.30;;
55069;SDS011;40967;52.070;8.596;2022-07-15T01:49:20;0.30;;;0.27;;
55069;SDS011;40967;52.070;8.596;2022-07-15T01:51:55;1.00;;;0.40;;
55069;SDS011;40967;52.070;8.596;2022-07-15T01:54:22;0.90;;;0.30;;
55069;SDS011;40967;52.070;8.596;2022-07-15T01:56:49;0.38;;;0.20;;
55069;SDS011;40967;52.070;8.596;2022-07-15T01:59:16;0.20;;;0.10;;
55069;SDS011;40967;52.070;8.596;2022-07-15T02:01:41;0.50;;;0.20;;
55069;SDS011;40967;52.070;8.596;2022-07-15T02:04:08;0.40;;;0.20;;
55069;SDS011;40967;52.070;8.596;2022-07-15T02:06:33;0.33;;;0.17;;
55069;SDS011;40967;52.070;8.596;2022-07-15T02:08:58;0.40;;;0.20;;
55069;SDS011;40967;52.070;8.596;2022-07-15T02:11:24;0.80;;;0.30;;
55069;SDS011;40967;52.070;8.596;2022-07-15T02:13:49;0.35;;;0.20;;
55069;SDS011;40967;52.070;8.596;2022-07-15T02:16:15;0.40;;;0.30;;
55069;SDS011;40967;52.070;8.596;2022-07-15T02:18:40;0.33;;;0.20;;
55069;SDS011;40967;52.070;8.596;2022-07-15T02:21:06;0.23;;;0.23;;
55069;SDS011;40967;52.070;8.596;2022-07-15T02:23:31;0.53;;;0.23;;
55069;SDS011;40967;52.070;8.596;2022-07-15T02:25:56;1.37;;;0.40;;
55069;SDS011;40967;52.070;8.596;2022-07-15T02:28:23;0.53;;;0.30;;
55069;SDS011;40967;52.070;8.596;2022-07-15T02:30:48;0.68;;;0.30;;
55069;SDS011;40967;52.070;8.596;2022-07-15T02:33:13;0.82;;;0.30;;
55069;SDS011;40967;52.070;8.596;2022-07-15T02:35:40;0.40;;;0.30;;
55069;SDS011;40967;52.070;8.596;2022-07-15T02:38:06;0.35;;;0.22;;
55069;SDS011;40967;52.070;8.596;2022-07-15T02:40:32;0.60;;;0.30;;
55069;SDS011;40967;52.070;8.596;2022-07-15T02:42:58;1.52;;;0.40;;
55069;SDS011;40967;52.070;8.596;2022-07-15T02:45:26;0.90;;;0.40;;
55069;SDS011;40967;52.070;8.596;2022-07-15T02:47:53;0.60;;;0.30;;
55069;SDS011;40967;52.070;8.596;2022-07-15T02:50:19;0.80;;;0.30;;
55069;SDS011;40967;52.070;8.596;2022-07-15T02:52:45;0.30;;;0.20;;
55069;SDS011;40967;52.070;8.596;2022-07-15T02:55:11;0.30;;;0.20;;
55069;SDS011;40967;52.070;8.596;2022-07-15T02:57:38;0.83;;;0.33;;
55069;SDS011;40967;52.070;8.596;2022-07-15T03:00:04;0.40;;;0.20;;
55069;SDS011;40967;52.070;8.596;2022-07-15T03:02:31;0.70;;;0.20;;
55069;SDS011;40967;52.070;8.596;2022-07-15T03:04:57;0.50;;;0.20;;
55069;SDS011;40967;52.070;8.596;2022-07-15T03:07:22;0.80;;;0.20;;
55069;SDS011;40967;52.070;8.596;2022-07-15T03:09:48;0.40;;;0.30;;
55069;SDS011;40967;52.070;8.596;2022-07-15T03:12:13;0.50;;;0.30;;
55069;SDS011;40967;52.070;8.596;2022-07-15T03:14:39;0.60;;;0.30;;
55069;SDS011;40967;52.070;8.596;2022-07-15T03:17:05;0.30;;;0.20;;
55069;SDS011;40967;52.070;8.596;2022-07-15T03:19:30;0.67;;;0.23;;
55069;SDS011;40967;52.070;8.596;2022-07-15T03:21:56;0.30;;;0.30;;
55069;SDS011;40967;52.070;8.596;2022-07-15T03:24:21;0.50;;;0.20;;
55069;SDS011;40967;52.070;8.596;2022-07-15T03:26:47;0.65;;;0.30;;
55069;SDS011;40967;52.070;8.596;2022-07-15T03:29:12;0.50;;;0.30;;
55069;SDS011;40967;52.070;8.596;2022-07-15T03:31:40;0.50;;;0.30;;
55069;SDS011;40967;52.070;8.596;2022-07-15T03:34:07;1.10;;;0.22;;
55069;SDS011;40967;52.070;8.596;2022-07-15T03:36:34;0.20;;;0.20;;
55069;SDS011;40967;52.070;8.596;2022-07-15T03:39:00;0.38;;;0.20;;
55069;SDS011;40967;52.070;8.596;2022-07-15T03:41:25;0.57;;;0.30;;
55069;SDS011;40967;52.070;8.596;2022-07-15T03:43:51;0.43;;;0.30;;
55069;SDS011;40967;52.070;8.596;2022-07-15T03:46:16;0.47;;;0.20;;
55069;SDS011;40967;52.070;8.596;2022-07-15T03:48:42;0.40;;;0.20;;
55069;SDS011;40967;52.070;8.596;2022-07-15T03:51:07;0.40;;;0.20;;
55069;SDS011;40967;52.070;8.596;2022-07-15T03:53:32;0.28;;;0.13;;
55069;SDS011;40967;52.070;8.596;2022-07-15T03:55:58;0.57;;;0.20;;
55069;SDS011;40967;52.070;8.596;2022-07-15T03:58:23;0.20;;;0.20;;
55069;SDS011;40967;52.070;8.596;2022-07-15T04:00:49;0.70;;;0.23;;
55069;SDS011;40967;52.070;8.596;2022-07-15T04:03:14;0.40;;;0.20;;
55069;SDS011;40967;52.070;8.596;2022-07-15T04:05:41;0.20;;;0.20;;
55069;SDS011;40967;52.070;8.596;2022-07-15T04:08:10;0.28;;;0.20;;
55069;SDS011;40967;52.070;8.596;2022-07-15T04:10:36;0.50;;;0.20;;
55069;SDS011;40967;52.070;8.596;2022-07-15T04:13:01;0.70;;;0.30;;
55069;SDS011;40967;52.070;8.596;2022-07-15T04:15:27;1.00;;;0.30;;
55069;SDS011;40967;52.070;8.596;2022-07-15T04:17:53;1.27;;;0.30;;
55069;SDS011;40967;52.070;8.596;2022-07-15T04:20:19;0.83;;;0.30;;
55069;SDS011;40967;52.070;8.596;2022-07-15T04:22:44;0.80;;;0.40;;
55069;SDS011;40967;52.070;8.596;2022-07-15T04:25:14;1.17;;;0.40;;
55069;SDS011;40967;52.070;8.596;2022-07-15T04:27:40;2.13;;;0.70;;
55069;SDS011;40967;52.070;8.596;2022-07-15T04:30:06;1.40;;;0.50;;
55069;SDS011;40967;52.070;8.596;2022-07-15T04:32:32;2.20;;;0.90;;
55069;SDS011;40967;52.070;8.596;2022-07-15T04:34:57;1.70;;;0.80;;
55069;SDS011;40967;52.070;8.596;2022-07-15T04:37:23;1.33;;;0.60;;
55069;SDS011;40967;52.070;8.596;2022-07-15T04:39:48;1.43;;;0.50;;
55069;SDS011;40967;52.070;8.596;2022-07-15T04:42:14;1.60;;;0.70;;
55069;SDS011;40967;52.070;8.596;2022-07-15T04:44:39;0.80;;;0.60;;
55069;SDS011;40967;52.070;8.596;2022-07-15T04:47:04;2.03;;;0.80;;
55069;SDS011;40967;52.070;8.596;2022-07-15T04:49:30;1.38;;;0.70;;
55069;SDS011;40967;52.070;8.596;2022-07-15T04:52:14;0.90;;;0.50;;
55069;SDS011;40967;52.070;8.596;2022-07-15T04:54:40;1.30;;;0.50;;
55069;SDS011;40967;52.070;8.596;2022-07-15T04:57:05;1.67;;;0.70;;
55069;SDS011;40967;52.070;8.596;2022-07-15T04:59:31;1.67;;;0.60;;
55069;SDS011;40967;52.070;8.596;2022-07-15T05:01:57;1.45;;;0.60;;
55069;SDS011;40967;52.070;8.596;2022-07-15T05:04:23;1.40;;;0.60;;
55069;SDS011;40967;52.070;8.596;2022-07-15T05:06:48;1.10;;;0.40;;
55069;SDS011;40967;52.070;8.596;2022-07-15T05:09:13;2.00;;;0.60;;
55069;SDS011;40967;52.070;8.596;2022-07-15T05:11:39;3.33;;;0.90;;
55069;SDS011;40967;52.070;8.596;2022-07-15T05:14:04;2.50;;;0.80;;
55069;SDS011;40967;52.070;8.596;2022-07-15T05:16:29;1.47;;;0.50;;
55069;SDS011;40967;52.070;8.596;2022-07-15T05:18:55;1.33;;;0.60;;
55069;SDS011;40967;52.070;8.596;2022-07-15T05:21:21;1.10;;;0.37;;
55069;SDS011;40967;52.070;8.596;2022-07-15T05:23:46;1.17;;;0.50;;
55069;SDS011;40967;52.070;8.596;2022-07-15T05:26:11;2.60;;;0.60;;
55069;SDS011;40967;52.070;8.596;2022-07-15T05:28:37;2.85;;;0.90;;
55069;SDS011;40967;52.070;8.596;2022-07-15T05:31:04;1.60;;;0.50;;
55069;SDS011;40967;52.070;8.596;2022-07-15T05:33:30;3.83;;;0.63;;
55069;SDS011;40967;52.070;8.596;2022-07-15T05:35:56;4.00;;;0.82;;
55069;SDS011;40967;52.070;8.596;2022-07-15T05:38:22;3.97;;;0.90;;
55069;SDS011;40967;52.070;8.596;2022-07-15T05:40:48;5.30;;;1.10;;
55069;SDS011;40967;52.070;8.596;2022-07-15T05:43:13;4.10;;;0.90;;
55069;SDS011;40967;52.070;8.596;2022-07-15T05:45:39;4.35;;;0.93;;
55069;SDS011;40967;52.070;8.596;2022-07-15T05:48:04;2.43;;;0.77;;
55069;SDS011;40967;52.070;8.596;2022-07-15T05:50:30;3.20;;;0.80;;
55069;SDS011;40967;52.070;8.596;2022-07-15T05:52:55;2.17;;;0.60;;
55069;SDS011;40967;52.070;8.596;2022-07-15T05:55:20;2.40;;;0.50;;
55069;SDS011;40967;52.070;8.596;2022-07-15T05:57:46;1.95;;;0.60;;
55069;SDS011;40967;52.070;8.596;2022-07-15T06:00:12;4.07;;;0.80;;
55069;SDS011;40967;52.070;8.596;2022-07-15T06:02:38;3.80;;;1.00;;
55069;SDS011;40967;52.070;8.596;2022-07-15T06:05:03;6.77;;;1.10;;
55069;SDS011;40967;52.070;8.596;2022-07-15T06:07:29;4.63;;;0.77;;
55069;SDS011;40967;52.070;8.596;2022-07-15T06:09:54;1.77;;;0.57;;
55069;SDS011;40967;52.070;8.596;2022-07-15T06:12:20;1.70;;;0.50;;
55069;SDS011;40967;52.070;8.596;2022-07-15T06:14:45;1.77;;;0.50;;
55069;SDS011;40967;52.070;8.596;2022-07-15T06:17:11;2.40;;;0.50;;
55069;SDS011;40967;52.070;8.596;2022-07-15T06:19:36;2.20;;;0.60;;
55069;SDS011;40967;52.070;8.596;2022-07-15T06:22:01;1.23;;;0.40;;
55069;SDS011;40967;52.070;8.596;2022-07-15T06:24:27;3.85;;;0.60;;
55069;SDS011;40967;52.070;8.596;2022-07-15T06:26:54;3.63;;;0.70;;
55069;SDS011;40967;52.070;8.596;2022-07-15T06:29:19;3.37;;;0.80;;
55069;SDS011;40967;52.070;8.596;2022-07-15T06:31:44;6.17;;;1.03;;
55069;SDS011;40967;52.070;8.596;2022-07-15T06:34:10;2.60;;;0.63;;
55069;SDS011;40967;52.070;8.596;2022-07-15T06:36:35;3.50;;;0.88;;
55069;SDS011;40967;52.070;8.596;2022-07-15T06:39:01;2.47;;;0.60;;
55069;SDS011;40967;52.070;8.596;2022-07-15T06:41:26;1.80;;;0.40;;
55069;SDS011;40967;52.070;8.596;2022-07-15T06:43:51;4.33;;;0.80;;
55069;SDS011;40967;52.070;8.596;2022-07-15T06:46:17;1.67;;;0.50;;
55069;SDS011;40967;52.070;8.596;2022-07-15T06:48:42;2.93;;;0.60;;
55069;SDS011;40967;52.070;8.596;2022-07-15T06:51:08;2.10;;;0.60;;
55069;SDS011;40967;52.070;8.596;2022-07-15T06:53:33;1.40;;;0.50;;
55069;SDS011;40967;52.070;8.596;2022-07-15T06:55:59;1.70;;;0.50;;
55069;SDS011;40967;52.070;8.596;2022-07-15T06:58:24;1.03;;;0.30;;
55069;SDS011;40967;52.070;8.596;2022-07-15T07:00:50;0.85;;;0.25;;
55069;SDS011;40967;52.070;8.596;2022-07-15T07:03:15;2.65;;;0.55;;
55069;SDS011;40967;52.070;8.596;2022-07-15T07:05:41;1.67;;;0.50;;
55069;SDS011;40967;52.070;8.596;2022-07-15T07:08:06;1.70;;;0.50;;
55069;SDS011;40967;52.070;8.596;2022-07-15T07:10:32;2.03;;;0.57;;
55069;SDS011;40967;52.070;8.596;2022-07-15T07:12:58;2.50;;;0.60;;
55069;SDS011;40967;52.070;8.596;2022-07-15T07:15:23;2.93;;;0.50;;
55069;SDS011;40967;52.070;8.596;2022-07-15T07:17:50;2.00;;;0.47;;
55069;SDS011;40967;52.070;8.596;2022-07-15T07:20:16;0.88;;;0.28;;
55069;SDS011;40967;52.070;8.596;2022-07-15T07:22:42;1.00;;;0.30;;
55069;SDS011;40967;52.070;8.596;2022-07-15T07:25:07;0.67;;;0.20;;
55069;SDS011;40967;52.070;8.596;2022-07-15T07:27:33;0.70;;;0.20;;
55069;SDS011;40967;52.070;8.596;2022-07-15T07:29:58;3.33;;;0.63;;
55069;SDS011;40967;52.070;8.596;2022-07-15T07:32:26;2.05;;;0.40;;
55069;SDS011;40967;52.070;8.596;2022-07-15T07:34:52;1.67;;;0.40;;
55069;SDS011;40967;52.070;8.596;2022-07-15T07:37:17;2.53;;;0.47;;
55069;SDS011;40967;52.070;8.596;2022-07-15T07:39:42;1.77;;;0.40;;
55069;SDS011;40967;52.070;8.596;2022-07-15T07:42:08;1.93;;;0.40;;
55069;SDS011;40967;52.070;8.596;2022-07-15T07:44:34;0.98;;;0.43;;
55069;SDS011;40967;52.070;8.596;2022-07-15T07:46:59;1.15;;;0.35;;
55069;SDS011;40967;52.070;8.596;2022-07-15T07:49:25;1.52;;;0.45;;
55069;SDS011;40967;52.070;8.596;2022-07-15T07:51:51;0.95;;;0.28;;
55069;SDS011;40967;52.070;8.596;2022-07-15T07:54:17;0.60;;;0.20;;
55069;SDS011;40967;52.070;8.596;2022-07-15T07:56:42;2.33;;;0.40;;
55069;SDS011;40967;52.070;8.596;2022-07-15T07:59:10;1.70;;;0.40;;
55069;SDS011;40967;52.070;8.596;2022-07-15T08:01:35;0.85;;;0.32;;
55069;SDS011;40967;52.070;8.596;2022-07-15T08:04:01;0.32;;;0.13;;
55069;SDS011;40967;52.070;8.596;2022-07-15T08:06:26;1.75;;;0.30;;
55069;SDS011;40967;52.070;8.596;2022-07-15T08:08:51;0.98;;;0.30;;
55069;SDS011;40967;52.070;8.596;2022-07-15T08:11:17;0.70;;;0.30;;
55069;SDS011;40967;52.070;8.596;2022-07-15T08:13:44;0.93;;;0.30;;
55069;SDS011;40967;52.070;8.596;2022-07-15T08:16:10;1.03;;;0.33;;
55069;SDS011;40967;52.070;8.596;2022-07-15T08:18:35;1.30;;;0.40;;
55069;SDS011;40967;52.070;8.596;2022-07-15T08:21:01;1.25;;;0.30;;
55069;SDS011;40967;52.070;8.596;2022-07-15T08:23:28;0.47;;;0.13;;
55069;SDS011;40967;52.070;8.596;2022-07-15T08:25:54;1.02;;;0.30;;
55069;SDS011;40967;52.070;8.596;2022-07-15T08:28:19;1.10;;;0.27;;
55069;SDS011;40967;52.070;8.596;2022-07-15T08:30:46;0.70;;;0.17;;
55069;SDS011;40967;52.070;8.596;2022-07-15T08:33:12;0.57;;;0.20;;
55069;SDS011;40967;52.070;8.596;2022-07-15T08:35:38;1.38;;;0.38;;
55069;SDS011;40967;52.070;8.596;2022-07-15T08:38:05;2.13;;;0.47;;
55069;SDS011;40967;52.070;8.596;2022-07-15T08:40:32;0.85;;;0.20;;
55069;SDS011;40967;52.070;8.596;2022-07-15T08:43:02;0.80;;;0.20;;
55069;SDS011;40967;52.070;8.596;2022-07-15T08:45:27;1.10;;;0.20;;
55069;SDS011;40967;52.070;8.596;2022-07-15T08:47:53;1.10;;;0.30;;
55069;SDS011;40967;52.070;8.596;2022-07-15T08:50:20;1.95;;;0.40;;
55069;SDS011;40967;52.070;8.596;2022-07-15T08:52:47;0.80;;;0.30;;
55069;SDS011;40967;52.070;8.596;2022-07-15T08:55:14;1.03;;;0.20;;
55069;SDS011;40967;52.070;8.596;2022-07-15T08:57:46;1.17;;;0.30;;
55069;SDS011;40967;52.070;8.596;2022-07-15T09:00:13;4.00;;;0.52;;
55069;SDS011;40967;52.070;8.596;2022-07-15T09:02:39;0.93;;;0.33;;
55069;SDS011;40967;52.070;8.596;2022-07-15T09:07:55;0.77;;;0.30;;
55069;SDS011;40967;52.070;8.596;2022-07-15T09:15:50;0.60;;;0.20;;
55069;SDS011;40967;52.070;8.596;2022-07-15T09:18:17;1.05;;;0.30;;
55069;SDS011;40967;52.070;8.596;2022-07-15T09:20:45;0.32;;;0.13;;
55069;SDS011;40967;52.070;8.596;2022-07-15T09:23:12;0.25;;;0.08;;
55069;SDS011;40967;52.070;8.596;2022-07-15T09:25:43;0.30;;;0.10;;
55069;SDS011;40967;52.070;8.596;2022-07-15T09:28:08;0.63;;;0.20;;
55069;SDS011;40967;52.070;8.596;2022-07-15T09:30:35;1.27;;;0.30;;
55069;SDS011;40967;52.070;8.596;2022-07-15T09:33:32;1.70;;;0.30;;
55069;SDS011;40967;52.070;8.596;2022-07-15T09:38:50;1.55;;;0.38;;
55069;SDS011;40967;52.070;8.596;2022-07-15T09:43:51;1.73;;;0.30;;
55069;SDS011;40967;52.070;8.596;2022-07-15T09:46:23;0.90;;;0.30;;
55069;SDS011;40967;52.070;8.596;2022-07-15T09:48:50;1.40;;;0.30;;
55069;SDS011;40967;52.070;8.596;2022-07-15T09:51:17;0.93;;;0.20;;
55069;SDS011;40967;52.070;8.596;2022-07-15T09:53:43;2.07;;;0.40;;
55069;SDS011;40967;52.070;8.596;2022-07-15T09:56:17;2.95;;;0.50;;
55069;SDS011;40967;52.070;8.596;2022-07-15T09:58:46;1.52;;;0.50;;
55069;SDS011;40967;52.070;8.596;2022-07-15T10:01:12;0.85;;;0.22;;
55069;SDS011;40967;52.070;8.596;2022-07-15T10:03:38;1.40;;;0.25;;
55069;SDS011;40967;52.070;8.596;2022-07-15T10:06:04;0.57;;;0.25;;
55069;SDS011;40967;52.070;8.596;2022-07-15T10:08:31;1.70;;;0.40;;
55069;SDS011;40967;52.070;8.596;2022-07-15T10:10:57;1.58;;;0.30;;
55069;SDS011;40967;52.070;8.596;2022-07-15T10:16:10;0.40;;;0.10;;
55069;SDS011;40967;52.070;8.596;2022-07-15T10:29:54;0.32;;;0.08;;
55069;SDS011;40967;52.070;8.596;2022-07-15T10:32:20;0.50;;;0.10;;
55069;SDS011;40967;52.070;8.596;2022-07-15T10:34:45;0.93;;;0.20;;
55069;SDS011;40967;52.070;8.596;2022-07-15T10:37:11;0.53;;;0.10;;
55069;SDS011;40967;52.070;8.596;2022-07-15T10:45:22;1.63;;;0.30;;
55069;SDS011;40967;52.070;8.596;2022-07-15T10:47:47;0.63;;;0.20;;
55069;SDS011;40967;52.070;8.596;2022-07-15T10:53:14;0.35;;;0.15;;
55069;SDS011;40967;52.070;8.596;2022-07-15T10:55:40;1.38;;;0.20;;
55069;SDS011;40967;52.070;8.596;2022-07-15T10:58:05;0.40;;;0.10;;
55069;SDS011;40967;52.070;8.596;2022-07-15T11:00:34;1.73;;;0.30;;
55069;SDS011;40967;52.070;8.596;2022-07-15T11:05:30;0.52;;;0.28;;
55069;SDS011;40967;52.070;8.596;2022-07-15T11:07:56;0.47;;;0.10;;
55069;SDS011;40967;52.070;8.596;2022-07-15T11:10:22;1.20;;;0.10;;
55069;SDS011;40967;52.070;8.596;2022-07-15T11:15:20;0.60;;;0.20;;
55069;SDS011;40967;52.070;8.596;2022-07-15T11:17:49;0.68;;;0.17;;
55069;SDS011;40967;52.070;8.596;2022-07-15T11:20:20;1.38;;;0.20;;
55069;SDS011;40967;52.070;8.596;2022-07-15T11:22:54;0.50;;;0.20;;
55069;SDS011;40967;52.070;8.596;2022-07-15T11:28:03;2.58;;;0.30;;
55069;SDS011;40967;52.070;8.596;2022-07-15T11:30:41;1.52;;;0.32;;
55069;SDS011;40967;52.070;8.596;2022-07-15T11:33:18;0.80;;;0.20;;
55069;SDS011;40967;52.070;8.596;2022-07-15T11:38:13;0.60;;;0.30;;
55069;SDS011;40967;52.070;8.596;2022-07-15T11:40:43;1.58;;;0.38;;
55069;SDS011;40967;52.070;8.596;2022-07-15T11:43:29;0.90;;;0.30;;
55069;SDS011;40967;52.070;8.596;2022-07-15T11:46:13;1.53;;;0.30;;
55069;SDS011;40967;52.070;8.596;2022-07-15T11:48:39;1.10;;;0.30;;
55069;SDS011;40967;52.070;8.596;2022-07-15T11:51:05;0.90;;;0.20;;
55069;SDS011;40967;52.070;8.596;2022-07-15T11:53:39;1.10;;;0.17;;
55069;SDS011;40967;52.070;8.596;2022-07-15T11:56:06;0.80;;;0.20;;
55069;SDS011;40967;52.070;8.596;2022-07-15T12:01:02;1.15;;;0.30;;
55069;SDS011;40967;52.070;8.596;2022-07-15T12:03:30;1.40;;;0.50;;
55069;SDS011;40967;52.070;8.596;2022-07-15T12:06:20;1.43;;;0.40;;
55069;SDS011;40967;52.070;8.596;2022-07-15T12:08:48;0.77;;;0.20;;
55069;SDS011;40967;52.070;8.596;2022-07-15T12:16:20;1.70;;;0.30;;
55069;SDS011;40967;52.070;8.596;2022-07-15T12:18:48;1.20;;;0.30;;
55069;SDS011;40967;52.070;8.596;2022-07-15T12:21:14;2.53;;;0.50;;
55069;SDS011;40967;52.070;8.596;2022-07-15T12:23:40;0.98;;;0.20;;
55069;SDS011;40967;52.070;8.596;2022-07-15T12:26:07;0.40;;;0.13;;
55069;SDS011;40967;52.070;8.596;2022-07-15T12:28:34;1.35;;;0.45;;
55069;SDS011;40967;52.070;8.596;2022-07-15T12:31:00;1.30;;;0.25;;
55069;SDS011;40967;52.070;8.596;2022-07-15T12:33:26;1.38;;;0.35;;
55069;SDS011;40967;52.070;8.596;2022-07-15T12:36:11;1.00;;;0.30;;
55069;SDS011;40967;52.070;8.596;2022-07-15T12:38:41;1.50;;;0.30;;
55069;SDS011;40967;52.070;8.596;2022-07-15T12:41:08;1.35;;;0.30;;
55069;SDS011;40967;52.070;8.596;2022-07-15T12:43:50;1.33;;;0.25;;
55069;SDS011;40967;52.070;8.596;2022-07-15T12:46:16;0.80;;;0.20;;
55069;SDS011;40967;52.070;8.596;2022-07-15T12:48:45;1.05;;;0.25;;
55069;SDS011;40967;52.070;8.596;2022-07-15T12:51:13;0.85;;;0.30;;
55069;SDS011;40967;52.070;8.596;2022-07-15T12:53:40;0.87;;;0.40;;
55069;SDS011;40967;52.070;8.596;2022-07-15T12:56:06;1.67;;;0.22;;
55069;SDS011;40967;52.070;8.596;2022-07-15T12:58:32;1.17;;;0.28;;
55069;SDS011;40967;52.070;8.596;2022-07-15T13:01:19;0.43;;;0.10;;
55069;SDS011;40967;52.070;8.596;2022-07-15T13:03:44;0.50;;;0.20;;
55069;SDS011;40967;52.070;8.596;2022-07-15T13:06:09;2.33;;;0.20;;
55069;SDS011;40967;52.070;8.596;2022-07-15T13:08:37;0.93;;;0.20;;
55069;SDS011;40967;52.070;8.596;2022-07-15T13:11:05;2.70;;;0.70;;
55069;SDS011;40967;52.070;8.596;2022-07-15T13:13:34;2.30;;;0.40;;
55069;SDS011;40967;52.070;8.596;2022-07-15T13:16:02;0.90;;;0.20;;
55069;SDS011;40967;52.070;8.596;2022-07-15T13:18:29;0.60;;;0.22;;
55069;SDS011;40967;52.070;8.596;2022-07-15T13:20:55;1.13;;;0.20;;
55069;SDS011;40967;52.070;8.596;2022-07-15T13:23:22;0.70;;;0.20;;
55069;SDS011;40967;52.070;8.596;2022-07-15T13:25:48;1.10;;;0.20;;
55069;SDS011;40967;52.070;8.596;2022-07-15T13:28:15;0.35;;;0.10;;
55069;SDS011;40967;52.070;8.596;2022-07-15T13:30:41;1.20;;;0.20;;
55069;SDS011;40967;52.070;8.596;2022-07-15T13:33:07;0.97;;;0.30;;
55069;SDS011;40967;52.070;8.596;2022-07-15T13:35:32;0.47;;;0.10;;
55069;SDS011;40967;52.070;8.596;2022-07-15T13:37:58;0.60;;;0.10;;
55069;SDS011;40967;52.070;8.596;2022-07-15T13:40:24;0.90;;;0.20;;
55069;SDS011;40967;52.070;8.596;2022-07-15T13:42:49;0.20;;;0.10;;
55069;SDS011;40967;52.070;8.596;2022-07-15T13:45:14;2.13;;;0.43;;
55069;SDS011;40967;52.070;8.596;2022-07-15T13:47:41;2.63;;;0.30;;
55069;SDS011;40967;52.070;8.596;2022-07-15T13:50:07;1.30;;;0.40;;
55069;SDS011;40967;52.070;8.596;2022-07-15T13:52:53;0.55;;;0.10;;
55069;SDS011;40967;52.070;8.596;2022-07-15T13:55:20;0.40;;;0.10;;
55069;SDS011;40967;52.070;8.596;2022-07-15T13:57:46;0.52;;;0.10;;
55069;SDS011;40967;52.070;8.596;2022-07-15T14:00:12;0.43;;;0.20;;
55069;SDS011;40967;52.070;8.596;2022-07-15T14:02:41;0.70;;;0.20;;
55069;SDS011;40967;52.070;8.596;2022-07-15T14:05:07;0.50;;;0.10;;
55069;SDS011;40967;52.070;8.596;2022-07-15T14:07:34;0.43;;;0.10;;
55069;SDS011;40967;52.070;8.596;2022-07-15T14:09:59;0.10;;;0.10;;
55069;SDS011;40967;52.070;8.596;2022-07-15T14:12:25;0.22;;;0.10;;
55069;SDS011;40967;52.070;8.596;2022-07-15T14:14:51;1.42;;;0.30;;
55069;SDS011;40967;52.070;8.596;2022-07-15T14:17:17;0.97;;;0.30;;
55069;SDS011;40967;52.070;8.596;2022-07-15T14:19:42;0.70;;;0.20;;
55069;SDS011;40967;52.070;8.596;2022-07-15T14:22:08;0.33;;;0.20;;
55069;SDS011;40967;52.070;8.596;2022-07-15T14:24:34;0.28;;;0.20;;
55069;SDS011;40967;52.070;8.596;2022-07-15T14:26:59;0.70;;;0.20;;
55069;SDS011;40967;52.070;8.596;2022-07-15T14:29:24;1.15;;;0.30;;
55069;SDS011;40967;52.070;8.596;2022-07-15T14:31:50;0.35;;;0.20;;
55069;SDS011;40967;52.070;8.596;2022-07-15T14:34:16;1.63;;;0.23;;
55069;SDS011;40967;52.070;8.596;2022-07-15T14:36:41;0.70;;;0.20;;
55069;SDS011;40967;52.070;8.596;2022-07-15T14:39:06;0.90;;;0.20;;
55069;SDS011;40967;52.070;8.596;2022-07-15T14:41:32;0.28;;;0.10;;
55069;SDS011;40967;52.070;8.596;2022-07-15T14:43:58;1.93;;;0.40;;
55069;SDS011;40967;52.070;8.596;2022-07-15T14:46:24;0.53;;;0.20;;
55069;SDS011;40967;52.070;8.596;2022-07-15T14:48:49;0.47;;;0.15;;
55069;SDS011;40967;52.070;8.596;2022-07-15T14:51:15;0.63;;;0.20;;
55069;SDS011;40967;52.070;8.596;2022-07-15T14:53:40;0.20;;;0.10;;
55069;SDS011;40967;52.070;8.596;2022-07-15T14:56:05;0.70;;;0.10;;
55069;SDS011;40967;52.070;8.596;2022-07-15T14:58:31;0.93;;;0.20;;
55069;SDS011;40967;52.070;8.596;2022-07-15T15:00:56;0.50;;;0.13;;
55069;SDS011;40967;52.070;8.596;2022-07-15T15:03:21;0.40;;;0.17;;
55069;SDS011;40967;52.070;8.596;2022-07-15T15:05:47;1.10;;;0.20;;
55069;SDS011;40967;52.070;8.596;2022-07-15T15:08:13;0.68;;;0.17;;
55069;SDS011;40967;52.070;8.596;2022-07-15T15:10:39;0.40;;;0.20;;
55069;SDS011;40967;52.070;8.596;2022-07-15T15:13:04;1.30;;;0.30;;
55069;SDS011;40967;52.070;8.596;2022-07-15T15:15:30;0.30;;;0.10;;
55069;SDS011;40967;52.070;8.596;2022-07-15T15:17:55;1.83;;;0.30;;
55069;SDS011;40967;52.070;8.596;2022-07-15T15:20:20;0.63;;;0.20;;
55069;SDS011;40967;52.070;8.596;2022-07-15T15:22:46;0.43;;;0.20;;
55069;SDS011;40967;52.070;8.596;2022-07-15T15:25:12;0.20;;;0.10;;
55069;SDS011;40967;52.070;8.596;2022-07-15T15:27:38;0.70;;;0.30;;
55069;SDS011;40967;52.070;8.596;2022-07-15T15:30:04;1.40;;;0.30;;
55069;SDS011;40967;52.070;8.596;2022-07-15T15:32:31;0.85;;;0.20;;
55069;SDS011;40967;52.070;8.596;2022-07-15T15:34:57;0.83;;;0.30;;
55069;SDS011;40967;52.070;8.596;2022-07-15T15:37:22;0.93;;;0.20;;
55069;SDS011;40967;52.070;8.596;2022-07-15T15:39:47;0.27;;;0.10;;